createdAt,value
2017-10-19T21:45:04.251Z,100978.15
2017-10-19T21:47:31.798Z,100978.49
2017-10-19T21:50:04.552Z,100975.41
2017-10-19T21:52:32.104Z,100973.97
2017-10-19T21:54:59.657Z,100968.47
2017-10-19T21:57:27.305Z,100964.38
2017-10-19T21:59:54.861Z,100964.33
2017-10-19T22:02:29.377Z,100962.05
2017-10-19T22:04:56.925Z,100962.30
2017-10-19T22:07:24.596Z,100957.44
2017-10-19T22:09:52.201Z,100957.69
2017-10-19T22:12:19.820Z,100962.02
2017-10-19T22:14:47.367Z,100949.03
2017-10-19T22:17:14.978Z,100956.77
2017-10-19T22:19:42.542Z,100957.62
2017-10-19T22:22:10.092Z,100954.95
2017-10-19T22:24:37.677Z,100952.04
2017-10-19T22:27:05.273Z,100949.67
2017-10-19T22:29:32.846Z,100951.23
2017-10-19T22:32:02.590Z,100948.27
2017-10-19T22:34:30.189Z,100946.96
2017-10-19T22:36:57.777Z,100947.43
2017-10-19T22:39:25.837Z,100942.73
2017-10-19T22:41:53.435Z,100944.76
2017-10-19T22:44:20.982Z,100940.83
2017-10-19T22:46:48.521Z,100939.70
2017-10-19T22:49:16.093Z,100939.19
2017-10-19T22:51:43.665Z,100932.34
2017-10-19T22:54:11.201Z,100927.74
2017-10-19T22:56:51.304Z,100928.33
2017-10-19T22:59:18.915Z,100936.26
2017-10-19T23:01:46.485Z,100935.55
2017-10-19T23:04:14.012Z,100937.41
2017-10-19T23:06:41.904Z,100940.70
2017-10-19T23:09:10.332Z,100944.91
2017-10-19T23:11:37.873Z,100937.73
2017-10-19T23:14:05.420Z,100935.53
2017-10-19T23:16:32.960Z,100933.89
2017-10-19T23:19:00.539Z,100935.80
2017-10-19T23:21:28.101Z,100945.27
2017-10-19T23:23:55.636Z,100941.80
2017-10-19T23:26:23.223Z,100934.20
2017-10-19T23:28:50.812Z,100932.37
2017-10-19T23:31:18.348Z,100934.91
2017-10-19T23:33:46.001Z,100929.38
2017-10-19T23:36:13.536Z,100934.83
2017-10-19T23:38:41.076Z,100938.55
2017-10-19T23:41:08.612Z,100937.11
2017-10-19T23:43:36.142Z,100941.08
2017-10-19T23:46:03.679Z,100937.93
2017-10-19T23:48:31.252Z,100932.83
2017-10-19T23:50:58.825Z,100930.68
2017-10-19T23:53:26.400Z,100932.30
2017-10-19T23:55:53.941Z,100932.30
2017-10-19T23:58:21.480Z,100940.41
